Time;durP1;ratioP1;P1;durP2;ratioP2;P2;SDS_P1;SDS_P2;PMS_P1;PMS_P2;Temp;Humidity;BMP_temperature;BMP_pressure;BME280_temperature;BME280_humidity;BME280_pressure;Samples;Min_cycle;Max_cycle;Signal;HPM_P1;HPM_P2
2022/04/23 00:01:01;;;;;;;11.30;10.10;;;;;;;10.28;100.00;100514.00;10460337;28;20126;-60
2022/04/23 00:06:04;;;;;;;13.07;10.75;;;;;;;10.15;100.00;100524.38;10461514;28;20128;-60
2022/04/23 00:11:06;;;;;;;13.90;10.43;;;;;;;10.32;100.00;100515.56;10458934;28;20057;-60
2022/04/23 00:16:10;;;;;;;16.63;11.88;;;;;;;10.22;100.00;100510.00;10459208;28;20045;-60
2022/04/23 00:21:13;;;;;;;14.32;12.63;;;;;;;10.23;100.00;100522.13;10446872;28;20526;-60
2022/04/23 00:26:15;;;;;;;15.27;12.30;;;;;;;10.20;100.00;100521.47;10459045;28;20123;-60
2022/04/23 00:31:18;;;;;;;17.17;13.75;;;;;;;10.26;100.00;100521.13;10457813;28;20052;-60
2022/04/23 00:36:23;;;;;;;14.50;12.38;;;;;;;9.99;100.00;100514.00;10454768;28;20049;-60
2022/04/23 00:46:46;;;;;;;20.33;14.10;;;;;;;10.21;100.00;100517.94;10418813;28;20053;-60
2022/04/23 00:51:49;;;;;;;18.45;15.38;;;;;;;9.97;100.00;100520.22;10451694;28;20053;-61
2022/04/23 00:56:53;;;;;;;21.48;17.23;;;;;;;9.95;100.00;100516.88;10447094;28;20495;-60
2022/04/23 01:01:55;;;;;;;21.85;17.10;;;;;;;9.97;100.00;100513.25;10418250;28;20049;-60
2022/04/23 01:06:59;;;;;;;22.55;17.20;;;;;;;9.91;100.00;100518.00;10417942;28;20049;-60
2022/04/23 01:12:01;;;;;;;19.15;16.67;;;;;;;9.74;100.00;100517.22;10418890;28;20053;-60
2022/04/23 01:17:04;;;;;;;21.30;17.60;;;;;;;9.84;100.00;100518.34;10429946;28;20048;-61
2022/04/23 01:22:06;;;;;;;20.73;17.23;;;;;;;9.74;100.00;100513.75;10421056;28;20054;-60
2022/04/23 01:27:10;;;;;;;19.85;16.88;;;;;;;9.85;100.00;100516.56;10417149;28;20052;-60
2022/04/23 01:32:12;;;;;;;23.70;17.92;;;;;;;9.72;100.00;100521.69;10417524;28;20503;-60
2022/04/23 01:37:14;;;;;;;17.92;15.52;;;;;;;9.71;100.00;100520.00;10416224;28;20484;-60
2022/04/23 01:42:20;;;;;;;22.40;20.00;;;;;;;9.76;100.00;100519.72;10415954;28;20523;-60
2022/04/23 01:47:22;;;;;;;24.02;16.63;;;;;;;9.51;100.00;100526.38;10415963;28;20045;-61
2022/04/23 01:52:24;;;;;;;23.98;19.50;;;;;;;9.61;100.00;100524.06;10452515;28;20480;-60
2022/04/23 01:57:26;;;;;;;20.48;17.38;;;;;;;9.46;100.00;100523.19;10416266;28;20063;-60
2022/04/23 02:02:29;;;;;;;22.95;18.38;;;;;;;9.55;100.00;100520.06;10415517;28;20409;-60
2022/04/23 02:07:35;;;;;;;25.35;21.13;;;;;;;9.59;100.00;100523.31;10416014;28;20058;-60
2022/04/23 02:12:38;;;;;;;24.70;19.35;;;;;;;9.60;100.00;100518.00;10417043;28;20052;-60
2022/04/23 02:17:42;;;;;;;28.73;23.33;;;;;;;9.67;100.00;100514.09;10415130;28;20056;-60
2022/04/23 02:22:45;;;;;;;28.25;20.42;;;;;;;9.84;100.00;100514.91;10456912;28;20120;-60
2022/04/23 02:27:49;;;;;;;25.75;22.30;;;;;;;10.08;100.00;100514.38;10456782;28;20049;-60
2022/04/23 02:32:51;;;;;;;27.42;22.05;;;;;;;10.09;100.00;100519.53;10459753;28;20142;-60
2022/04/23 02:37:56;;;;;;;28.50;21.65;;;;;;;9.99;100.00;100521.00;10465099;28;20041;-60
2022/04/23 02:43:02;;;;;;;27.92;23.00;;;;;;;10.19;100.00;100520.66;10464544;28;20053;-60
2022/04/23 02:48:05;;;;;;;30.77;23.75;;;;;;;9.87;100.00;100519.97;10460210;28;20561;-60
2022/04/23 02:53:08;;;;;;;28.90;23.45;;;;;;;9.96;100.00;100521.19;10423652;28;20507;-60
2022/04/23 02:58:11;;;;;;;24.30;19.95;;;;;;;9.65;100.00;100522.97;10423090;28;20048;-60
2022/04/23 03:03:13;;;;;;;31.73;23.70;;;;;;;9.83;100.00;100514.06;10427190;28;20045;-61
2022/04/23 03:08:16;;;;;;;29.75;23.85;;;;;;;9.76;100.00;100509.28;10463861;28;20094;-60
2022/04/23 03:13:19;;;;;;;30.02;25.17;;;;;;;9.62;100.00;100515.31;10426660;28;20049;-60
2022/04/23 03:18:21;;;;;;;30.60;25.02;;;;;;;9.68;100.00;100507.09;10427529;28;20040;-60
2022/04/23 03:23:24;;;;;;;33.28;26.45;;;;;;;9.60;100.00;100501.47;10463327;28;20057;-60
2022/04/23 03:28:26;;;;;;;30.23;24.20;;;;;;;9.36;100.00;100504.56;10461897;28;20055;-60
2022/04/23 03:33:28;;;;;;;30.48;24.80;;;;;;;9.49;100.00;100502.09;10423472;28;20068;-60
2022/04/23 03:38:31;;;;;;;30.90;24.83;;;;;;;9.51;100.00;100505.47;10420876;28;20493;-60
2022/04/23 03:43:33;;;;;;;29.15;24.52;;;;;;;9.57;100.00;100499.88;10420389;28;20061;-60
2022/04/23 03:48:35;;;;;;;33.80;27.13;;;;;;;9.28;100.00;100506.78;10428071;28;20041;-58
2022/04/23 03:53:38;;;;;;;31.77;26.00;;;;;;;9.21;100.00;100508.91;10420627;28;20403;-59
2022/04/23 03:58:41;;;;;;;31.35;25.02;;;;;;;9.43;100.00;100502.44;10420356;28;20049;-59
2022/04/23 04:03:43;;;;;;;29.13;24.27;;;;;;;9.38;100.00;100500.13;10420550;28;20046;-58
2022/04/23 04:08:50;;;;;;;34.78;27.98;;;;;;;9.13;100.00;100499.78;10419661;28;20049;-59
2022/04/23 04:13:53;;;;;;;32.58;27.67;;;;;;;9.09;100.00;100501.75;10458964;28;20053;-59
2022/04/23 04:18:55;;;;;;;32.25;26.85;;;;;;;9.14;100.00;100491.88;10450666;28;20480;-58
2022/04/23 04:23:58;;;;;;;29.58;24.80;;;;;;;9.30;100.00;100490.09;10418629;28;20050;-59
2022/04/23 04:29:01;;;;;;;34.67;27.27;;;;;;;9.03;100.00;100481.22;10420824;28;20050;-58
2022/04/23 04:34:03;;;;;;;29.38;24.42;;;;;;;9.23;100.00;100477.44;10460632;28;20053;-58
2022/04/23 04:39:05;;;;;;;32.28;26.83;;;;;;;9.14;100.00;100493.66;10459504;28;20049;-58
2022/04/23 04:44:08;;;;;;;33.90;26.70;;;;;;;9.01;100.00;100485.66;10459550;28;20053;-58
2022/04/23 04:49:11;;;;;;;36.80;29.35;;;;;;;9.10;100.00;100478.16;10457936;28;20037;-59
2022/04/23 04:54:13;;;;;;;32.45;26.00;;;;;;;9.26;100.00;100477.28;10459149;28;20059;-59
2022/04/23 04:59:15;;;;;;;33.22;27.00;;;;;;;9.32;100.00;100483.94;10457813;28;20480;-58
2022/04/23 05:04:18;;;;;;;34.15;27.88;;;;;;;9.22;100.00;100481.00;10459054;28;20053;-58
2022/04/23 05:09:21;;;;;;;32.92;25.80;;;;;;;9.23;100.00;100486.16;10454356;28;20045;-58
2022/04/23 05:14:23;;;;;;;29.50;26.17;;;;;;;9.34;100.00;100487.31;10417807;28;20049;-58
2022/04/23 05:19:26;;;;;;;35.28;28.48;;;;;;;9.18;100.00;100489.94;10436994;28;20487;-58
2022/04/23 05:24:28;;;;;;;33.17;28.30;;;;;;;9.21;100.00;100490.63;10458600;28;20060;-58
2022/04/23 05:29:30;;;;;;;32.30;27.40;;;;;;;9.23;100.00;100482.69;10455010;28;20045;-58
2022/04/23 05:34:34;;;;;;;32.08;26.70;;;;;;;9.19;100.00;100487.22;10444555;28;20041;-58
2022/04/23 05:39:38;;;;;;;34.63;28.55;;;;;;;9.16;100.00;100490.00;10417511;28;20050;-59
2022/04/23 05:44:40;;;;;;;32.53;26.58;;;;;;;9.16;100.00;100494.41;10416185;28;20057;-58
2022/04/23 05:49:43;;;;;;;32.42;27.05;;;;;;;9.30;100.00;100492.69;10417583;28;20052;-58
2022/04/23 05:54:53;;;;;;;36.28;30.70;;;;;;;9.28;100.00;100493.72;10416436;28;20045;-58
2022/04/23 05:59:56;;;;;;;36.05;29.60;;;;;;;9.46;100.00;100490.06;10416329;28;20049;-58
2022/04/23 06:04:59;;;;;;;40.67;31.42;;;;;;;9.80;100.00;100493.31;10416261;28;20052;-58
2022/04/23 06:10:01;;;;;;;29.98;25.75;;;;;;;9.99;100.00;100493.06;10417068;28;20041;-58
2022/04/23 06:15:04;;;;;;;28.77;24.75;;;;;;;10.04;100.00;100482.34;10415942;28;20052;-58
2022/04/23 06:20:07;;;;;;;26.15;23.17;;;;;;;10.43;100.00;100493.94;10415117;28;20488;-59
2022/04/23 06:25:10;;;;;;;27.80;24.25;;;;;;;10.64;100.00;100481.31;10415737;28;20060;-58
2022/04/23 06:30:12;;;;;;;27.63;22.40;;;;;;;10.72;100.00;100478.19;10417144;28;20052;-58
2022/04/23 06:35:15;;;;;;;28.17;25.15;;;;;;;11.12;100.00;100480.91;10415568;28;20056;-58
2022/04/23 06:40:17;;;;;;;27.88;23.73;;;;;;;11.33;100.00;100476.03;10415184;28;20065;-59
2022/04/23 06:45:19;;;;;;;24.95;22.27;;;;;;;11.52;100.00;100471.25;10416456;28;20049;-59
2022/04/23 06:50:22;;;;;;;25.90;22.05;;;;;;;11.53;100.00;100470.31;10431804;28;20045;-59
2022/04/23 06:55:24;;;;;;;24.08;21.48;;;;;;;11.84;100.00;100470.03;10450939;22;20038;-64
2022/04/23 07:00:26;;;;;;;25.67;22.95;;;;;;;11.96;100.00;100476.28;10374329;28;20056;-64
2022/04/23 07:05:34;;;;;;;25.65;23.00;;;;;;;11.99;100.00;100476.06;10374166;28;20053;-64
2022/04/23 07:10:36;;;;;;;28.15;22.30;;;;;;;12.50;100.00;100486.50;10374069;28;20053;-63
2022/04/23 07:15:39;;;;;;;34.20;22.88;;;;;;;12.62;100.00;100469.03;10374040;28;20061;-64
2022/04/23 07:20:41;;;;;;;25.27;22.38;;;;;;;13.09;98.27;100472.66;10382353;28;20056;-64
2022/04/23 07:25:44;;;;;;;26.98;21.35;;;;;;;13.65;94.36;100471.22;10381627;28;20054;-64
2022/04/23 07:30:50;;;;;;;27.63;22.73;;;;;;;14.08;92.96;100460.03;10386784;28;20500;-63
2022/04/23 07:41:14;;;;;;;25.83;22.00;;;;;;;14.63;85.16;100458.38;10380166;28;20050;-64
2022/04/23 07:46:16;;;;;;;24.75;22.15;;;;;;;15.07;80.15;100466.28;10407751;28;20431;-64
2022/04/23 07:51:19;;;;;;;25.08;22.40;;;;;;;15.05;84.52;100458.50;10386737;28;20081;-64
2022/04/23 07:56:22;;;;;;;22.92;20.55;;;;;;;15.04;79.14;100458.63;10379663;28;20073;-64
2022/04/23 08:01:24;;;;;;;24.75;20.90;;;;;;;15.59;77.45;100446.13;10378003;28;20515;-64
2022/04/23 08:06:27;;;;;;;24.08;20.80;;;;;;;15.61;77.46;100446.81;10379525;28;20056;-64
2022/04/23 08:11:30;;;;;;;24.50;21.25;;;;;;;15.83;74.29;100438.94;10379408;28;20050;-64
2022/04/23 08:16:32;;;;;;;25.02;20.13;;;;;;;15.93;72.17;100438.00;10379145;28;20049;-64
2022/04/23 08:21:35;;;;;;;24.58;21.88;;;;;;;16.25;70.49;100436.19;10379026;28;20056;-64
2022/04/23 08:26:37;;;;;;;23.67;21.08;;;;;;;16.46;69.99;100429.03;10377559;28;20050;-64
2022/04/23 08:31:39;;;;;;;23.52;20.92;;;;;;;16.92;70.14;100436.53;10377730;28;20065;-64
2022/04/23 08:36:42;;;;;;;28.55;22.25;;;;;;;16.56;66.25;100439.66;10378378;28;20041;-64
2022/04/23 08:41:46;;;;;;;24.20;21.73;;;;;;;17.22;67.90;100431.09;10377160;28;20046;-58
2022/04/23 08:46:50;;;;;;;24.63;22.23;;;;;;;17.40;63.49;100418.00;10378027;28;20056;-58
2022/04/23 08:51:54;;;;;;;23.77;21.38;;;;;;;17.52;63.28;100423.97;10377888;28;20053;-58
2022/04/23 08:56:56;;;;;;;23.75;21.17;;;;;;;16.81;63.50;100411.00;10377208;28;20060;-59
2022/04/23 09:01:58;;;;;;;23.73;21.20;;;;;;;18.19;59.55;100422.09;10375765;28;20413;-58
2022/04/23 09:07:01;;;;;;;23.35;20.85;;;;;;;19.27;58.20;100416.91;10396921;28;20049;-59
2022/04/23 09:12:08;;;;;;;24.50;21.95;;;;;;;18.87;58.83;100417.41;10375379;28;20531;-59
2022/04/23 09:27:52;;;;;;;;;;;;;;;17.60;62.25;100421.44;10411096;28;20049;-59
2022/04/23 09:32:56;;;;;;;25.17;22.27;;;;;;;17.52;61.49;100421.31;10383424;28;19921;-59
2022/04/23 09:38:17;;;;;;;24.55;21.95;;;;;;;17.40;61.23;100420.66;10376175;28;20054;-59
2022/04/23 09:43:29;;;;;;;23.60;21.20;;;;;;;18.50;60.55;100427.09;10375917;28;20053;-59
2022/04/23 09:48:32;;;;;;;25.92;22.33;;;;;;;18.28;62.42;100420.38;10375149;28;20301;-59
2022/04/23 09:53:36;;;;;;;24.52;20.25;;;;;;;17.15;66.16;100430.00;10375037;28;20054;-59
2022/04/23 09:58:39;;;;;;;25.23;20.10;;;;;;;17.27;62.12;100428.88;10373718;28;20057;-59
2022/04/23 10:03:46;;;;;;;24.50;21.80;;;;;;;17.29;67.09;100420.78;10375407;28;20054;-59
2022/04/23 10:08:51;;;;;;;25.77;21.70;;;;;;;19.25;61.16;100424.19;10374640;28;20109;-59
2022/04/23 10:14:06;;;;;;;25.73;20.33;;;;;;;20.53;56.45;100412.97;10374644;28;20054;-59
2022/04/23 10:19:10;;;;;;;21.83;19.17;;;;;;;22.23;51.82;100411.34;10374010;28;20049;-59
2022/04/23 10:24:18;;;;;;;23.65;20.48;;;;;;;21.00;51.78;100412.41;10373787;28;20045;-59
2022/04/23 10:29:22;;;;;;;24.17;21.65;;;;;;;18.46;56.64;100415.13;10373687;28;20049;-59
2022/04/23 10:34:31;;;;;;;24.35;21.52;;;;;;;19.79;54.81;100413.47;10374320;28;20076;-60
2022/04/23 10:39:33;;;;;;;24.45;20.20;;;;;;;21.52;51.47;100400.59;10374125;28;20485;-59
2022/04/23 10:44:36;;;;;;;30.85;19.98;;;;;;;20.43;53.05;100399.78;10372906;28;20045;-58
2022/04/23 10:49:38;;;;;;;21.25;18.92;;;;;;;20.53;54.26;100399.66;10373826;28;20512;-58
2022/04/23 10:54:45;;;;;;;28.38;21.60;;;;;;;20.12;51.81;100391.53;10378842;28;20153;-59
2022/04/23 10:59:48;;;;;;;21.40;19.25;;;;;;;21.88;48.67;100384.97;10382267;28;20049;-58
2022/04/23 11:16:08;;;;;;;21.98;19.48;;;;;;;20.34;50.82;100380.34;10381591;28;20052;-58
2022/04/23 11:21:24;;;;;;;20.80;18.60;;;;;;;20.53;53.12;100373.06;10391541;28;20046;-58
2022/04/23 11:26:38;;;;;;;19.35;17.27;;;;;;;21.77;50.30;100366.72;10382185;28;20060;-58
2022/04/23 11:31:51;;;;;;;21.85;16.98;;;;;;;20.06;50.88;100371.75;10380479;28;20133;-58
2022/04/23 11:36:53;;;;;;;18.30;16.40;;;;;;;21.83;47.68;100367.88;10380244;28;20085;-58
2022/04/23 11:41:56;;;;;;;20.08;16.42;;;;;;;21.89;46.55;100357.34;10380656;28;20056;-58
2022/04/23 11:46:58;;;;;;;20.85;17.40;;;;;;;21.92;46.26;100361.47;10380365;28;20056;-58
2022/04/23 11:52:14;;;;;;;21.48;17.30;;;;;;;22.94;46.08;100350.72;10379586;28;20504;-58
2022/04/23 11:57:18;;;;;;;20.60;18.52;;;;;;;21.87;47.07;100351.38;10379168;28;20441;-58
2022/04/23 12:02:22;;;;;;;20.70;16.63;;;;;;;23.27;44.93;100341.63;10379810;28;20061;-59
2022/04/23 12:07:26;;;;;;;19.02;16.90;;;;;;;23.19;44.09;100342.53;10378954;28;20064;-59
2022/04/23 12:12:33;;;;;;;18.38;16.58;;;;;;;23.42;44.30;100339.78;10379439;28;20054;-59
2022/04/23 12:17:48;;;;;;;20.35;18.13;;;;;;;22.76;46.06;100331.53;10402306;28;20045;-58
2022/04/23 12:23:01;;;;;;;18.88;16.88;;;;;;;22.44;43.73;100344.94;10419352;28;20053;-58
2022/04/23 12:44:20;;;;;;;21.73;16.55;;;;;;;22.84;45.33;100298.59;10395443;28;20376;-59
2022/04/23 12:49:22;;;;;;;19.45;17.40;;;;;;;22.65;44.60;100308.78;10417961;28;20477;-58
2022/04/23 12:54:25;;;;;;;24.63;17.95;;;;;;;23.26;42.89;100300.72;10406344;28;20454;-58
2022/04/23 12:59:27;;;;;;;16.75;15.02;;;;;;;24.17;41.94;100296.97;10380527;28;20400;-57
2022/04/23 13:04:30;;;;;;;21.55;17.83;;;;;;;23.98;40.48;100285.03;10418299;28;20064;-58
2022/04/23 13:09:33;;;;;;;19.25;16.55;;;;;;;23.51;43.51;100287.91;10418226;28;20045;-57
2022/04/23 13:14:35;;;;;;;20.83;17.33;;;;;;;22.45;40.95;100281.75;10400038;28;20408;-57
2022/04/23 13:19:37;;;;;;;18.40;15.40;;;;;;;23.75;42.38;100285.97;10379585;28;20042;-57
2022/04/23 13:24:40;;;;;;;20.33;16.65;;;;;;;24.22;41.01;100282.00;10417518;28;20128;-55
2022/04/23 13:29:43;;;;;;;17.38;15.55;;;;;;;24.52;41.33;100286.41;10414167;28;20053;-55
2022/04/23 13:34:45;;;;;;;18.02;15.80;;;;;;;25.03;39.21;100275.50;10416523;28;20049;-55
2022/04/23 13:39:47;;;;;;;20.08;17.98;;;;;;;24.42;40.67;100290.22;10416556;28;20049;-55
2022/04/23 13:44:50;;;;;;;20.45;18.35;;;;;;;24.95;41.54;100267.63;10416082;28;20052;-55
2022/04/23 13:49:53;;;;;;;18.88;16.98;;;;;;;25.65;38.78;100273.81;10415391;28;20045;-55
2022/04/23 13:54:55;;;;;;;20.58;17.70;;;;;;;25.76;39.58;100275.09;10414747;28;20077;-56
2022/04/23 13:59:58;;;;;;;19.70;17.52;;;;;;;24.56;41.36;100266.28;10416122;28;20045;-55
2022/04/23 14:10:22;;;;;;;17.85;15.50;;;;;;;24.39;38.50;100263.03;10395794;28;20129;-55
2022/04/23 14:15:24;;;;;;;19.55;14.98;;;;;;;23.14;41.97;100254.13;10408599;28;20045;-54
2022/04/23 14:20:26;;;;;;;16.40;14.60;;;;;;;25.19;39.09;100247.59;10414610;28;20480;-55
2022/04/23 14:25:29;;;;;;;21.20;15.70;;;;;;;24.75;38.52;100235.38;10415160;28;20171;-55
2022/04/23 14:30:31;;;;;;;15.15;13.43;;;;;;;25.15;37.64;100238.28;10423365;28;20431;-55
2022/04/23 14:35:34;;;;;;;15.07;13.57;;;;;;;25.25;38.43;100240.59;10423469;28;20072;-56
2022/04/23 14:40:37;;;;;;;14.00;12.23;;;;;;;25.69;37.82;100236.72;10423295;28;20474;-56
2022/04/23 14:45:41;;;;;;;12.90;11.60;;;;;;;25.13;37.19;100234.97;10423127;28;20133;-56
2022/04/23 14:56:04;;;;;;;15.15;12.38;;;;;;;25.25;37.33;100235.25;10423032;28;20070;-56
2022/04/23 15:01:07;;;;;;;13.68;10.25;;;;;;;25.21;38.11;100222.25;10423183;28;20057;-56
2022/04/23 15:06:10;;;;;;;13.65;11.50;;;;;;;24.08;38.33;100224.06;10422316;28;20406;-56
2022/04/23 15:11:12;;;;;;;13.07;11.68;;;;;;;23.21;39.00;100222.19;10422780;28;20053;-56
2022/04/23 15:16:15;;;;;;;15.68;11.43;;;;;;;23.75;38.10;100224.50;10422005;28;20052;-56
2022/04/23 15:21:17;;;;;;;13.80;12.40;;;;;;;22.99;37.66;100222.06;10420718;28;20607;-56
2022/04/23 15:26:26;;;;;;;11.90;10.65;;;;;;;23.72;39.36;100225.72;10421584;28;20405;-55
2022/04/23 15:31:29;;;;;;;13.80;12.35;;;;;;;22.29;41.44;100234.69;10421298;28;20432;-55
2022/04/23 15:36:31;;;;;;;13.52;12.10;;;;;;;22.56;42.14;100217.31;10420995;28;20483;-55
2022/04/23 15:41:34;;;;;;;13.27;11.93;;;;;;;23.09;41.51;100227.16;10420763;28;20046;-55
2022/04/23 15:46:37;;;;;;;14.43;11.23;;;;;;;22.32;41.79;100220.19;10421381;28;20049;-55
2022/04/23 15:51:40;;;;;;;13.90;12.15;;;;;;;21.98;41.56;100227.53;10421143;28;20088;-55
2022/04/23 15:56:44;;;;;;;16.50;12.63;;;;;;;21.24;44.67;100222.53;10417648;28;20053;-55
2022/04/23 16:01:46;;;;;;;12.27;11.07;;;;;;;20.97;44.83;100229.13;10414357;28;20052;-55
2022/04/23 16:06:48;;;;;;;11.20;10.07;;;;;;;21.26;43.59;100219.72;10418831;28;20049;-55
2022/04/23 16:11:51;;;;;;;11.80;10.70;;;;;;;20.97;44.25;100229.94;10420398;28;20052;-55
2022/04/23 16:16:53;;;;;;;12.85;11.65;;;;;;;21.19;44.13;100221.41;10418463;28;20053;-55
2022/04/23 16:21:55;;;;;;;18.50;11.48;;;;;;;21.09;44.72;100219.75;10369802;28;20050;-57
2022/04/23 16:26:58;;;;;;;11.98;10.77;;;;;;;20.51;44.54;100219.00;10374460;28;20479;-57
2022/04/23 16:32:00;;;;;;;11.85;10.65;;;;;;;20.95;45.18;100221.28;10376831;28;20053;-56
2022/04/23 16:47:47;;;;;;;10.90;9.98;;;;;;;19.92;46.48;100224.44;10417923;28;20419;-55
2022/04/23 16:52:49;;;;;;;12.65;11.35;;;;;;;20.02;45.45;100221.59;10415724;28;20057;-56
2022/04/23 16:57:52;;;;;;;12.43;10.18;;;;;;;19.48;46.20;100225.44;10416165;28;20465;-56
2022/04/23 17:02:54;;;;;;;10.50;9.32;;;;;;;19.67;46.66;100234.97;10416732;28;20061;-57
2022/04/23 17:07:57;;;;;;;12.05;10.05;;;;;;;18.75;47.51;100229.31;10416670;28;20103;-56
2022/04/23 17:12:59;;;;;;;10.68;9.52;;;;;;;19.16;46.38;100222.63;10417984;28;20053;-56
2022/04/23 17:18:01;;;;;;;10.00;8.57;;;;;;;18.17;47.57;100229.81;10407982;28;20049;-56
2022/04/23 17:23:04;;;;;;;11.57;10.13;;;;;;;18.56;47.46;100219.72;10417036;28;20404;-56
2022/04/23 17:28:06;;;;;;;9.38;8.43;;;;;;;18.19;48.24;100215.44;10417359;28;20053;-56
2022/04/23 17:33:08;;;;;;;9.75;8.80;;;;;;;17.94;48.56;100217.03;10416097;28;20049;-57
2022/04/23 17:43:32;;;;;;;10.52;7.93;;;;;;;17.43;50.60;100228.97;10416367;28;20045;-56
2022/04/23 17:48:35;;;;;;;9.95;8.45;;;;;;;17.44;49.01;100231.47;10398458;28;20403;-54
2022/04/23 17:53:37;;;;;;;10.40;7.95;;;;;;;17.23;50.70;100231.72;10414845;28;20436;-56
2022/04/23 17:58:39;;;;;;;10.63;7.60;;;;;;;17.32;50.07;100226.53;10415584;28;20057;-56
2022/04/23 18:09:03;;;;;;;8.10;7.30;;;;;;;17.42;50.95;100220.22;10416184;28;20056;-56
2022/04/23 18:14:05;;;;;;;6.45;5.95;;;;;;;17.42;50.42;100222.88;10416205;28;20107;-56
2022/04/23 18:19:09;;;;;;;6.60;5.93;;;;;;;17.24;51.12;100225.44;10415945;28;20049;-55
2022/04/23 18:24:12;;;;;;;7.18;6.47;;;;;;;17.12;52.51;100231.06;10415832;28;20053;-55
2022/04/23 18:29:14;;;;;;;9.30;5.35;;;;;;;17.01;54.30;100234.69;10415634;28;20046;-56
2022/04/23 18:34:17;;;;;;;6.45;5.88;;;;;;;16.94;54.94;100236.25;10415820;28;20049;-56
2022/04/23 18:39:19;;;;;;;10.52;5.90;;;;;;;16.81;54.20;100226.81;10415503;28;20053;-56
2022/04/23 18:44:22;;;;;;;7.93;5.68;;;;;;;16.88;53.80;100225.28;10414768;28;20408;-56
2022/04/23 18:49:24;;;;;;;6.13;4.75;;;;;;;16.66;53.46;100228.19;10415187;28;20144;-56
2022/04/23 18:54:26;;;;;;;6.80;5.43;;;;;;;16.54;53.10;100232.81;10415365;28;20049;-56
2022/04/23 18:59:29;;;;;;;6.32;5.72;;;;;;;16.57;52.85;100231.69;10414489;28;20058;-54
2022/04/23 19:04:31;;;;;;;8.75;6.32;;;;;;;16.33;52.07;100235.59;10415190;28;20053;-58
2022/04/23 19:14:46;;;;;;;7.95;4.72;;;;;;;16.11;51.74;100248.09;10457535;28;20060;-55
2022/04/23 19:19:48;;;;;;;11.18;5.22;;;;;;;16.05;50.79;100253.91;10463233;28;20045;-55
2022/04/23 19:30:12;;;;;;;8.27;5.40;;;;;;;15.86;50.71;100260.00;10463382;28;20045;-55
2022/04/23 19:35:19;;;;;;;5.35;4.60;;;;;;;15.49;52.64;100265.00;10463261;28;20061;-53
2022/04/23 19:40:21;;;;;;;4.38;4.07;;;;;;;15.18;52.38;100262.34;10463016;28;20045;-55
2022/04/23 19:45:24;;;;;;;7.82;4.32;;;;;;;14.98;54.37;100264.88;10462859;28;20135;-56
2022/04/23 19:50:26;;;;;;;5.40;4.90;;;;;;;14.47;55.20;100265.59;10461909;28;20484;-55
2022/04/23 19:55:29;;;;;;;12.40;4.80;;;;;;;14.47;55.86;100266.44;10462002;28;20053;-55
2022/04/23 20:00:31;;;;;;;9.93;4.78;;;;;;;14.51;56.03;100264.38;10461603;28;20392;-55
2022/04/23 20:05:38;;;;;;;5.32;4.22;;;;;;;14.43;54.31;100262.38;10476387;28;20053;-54
2022/04/23 20:10:41;;;;;;;4.65;4.20;;;;;;;13.99;56.42;100266.84;10461543;28;20052;-55
2022/04/23 20:15:43;;;;;;;4.88;4.43;;;;;;;13.84;56.79;100258.34;10461685;28;20048;-55
2022/04/23 20:20:45;;;;;;;7.93;5.07;;;;;;;13.57;56.88;100262.22;10460786;28;20041;-55
2022/04/23 20:25:48;;;;;;;5.38;4.55;;;;;;;13.64;58.59;100269.63;10459989;28;20049;-54
2022/04/23 20:30:50;;;;;;;6.05;5.15;;;;;;;13.70;58.27;100270.00;10460319;28;20060;-54
2022/04/23 20:41:14;;;;;;;5.72;4.78;;;;;;;13.31;58.04;100266.81;10460721;28;20056;-54
2022/04/23 20:46:16;;;;;;;5.82;5.15;;;;;;;13.42;56.64;100276.56;10459449;28;20480;-54
2022/04/23 20:51:19;;;;;;;5.32;4.82;;;;;;;13.07;60.29;100274.81;10459538;28;20492;-55
2022/04/23 20:56:22;;;;;;;5.45;4.90;;;;;;;13.05;59.24;100265.38;10459850;28;20049;-55
2022/04/23 21:01:24;;;;;;;5.40;4.88;;;;;;;13.10;59.14;100271.97;10458883;28;20488;-55
2022/04/23 21:06:27;;;;;;;7.00;4.68;;;;;;;13.05;60.30;100271.47;10458787;28;20135;-55
2022/04/23 21:11:29;;;;;;;5.95;5.00;;;;;;;12.81;62.17;100269.75;10458682;28;20053;-55
2022/04/23 21:16:32;;;;;;;6.00;5.40;;;;;;;12.73;62.44;100272.13;10458694;28;20064;-54
2022/04/23 21:21:34;;;;;;;6.20;5.03;;;;;;;12.60;63.25;100271.34;10458771;28;20078;-54
2022/04/23 21:26:37;;;;;;;7.20;5.32;;;;;;;12.59;61.84;100269.66;10458840;28;20053;-55
2022/04/23 21:31:39;;;;;;;5.05;4.55;;;;;;;12.61;63.07;100273.03;10457474;28;20056;-55
2022/04/23 21:36:41;;;;;;;7.05;4.70;;;;;;;12.36;65.03;100266.13;10457891;28;20056;-54
2022/04/23 21:47:05;;;;;;;6.38;4.97;;;;;;;12.21;68.50;100275.97;10457514;28;20407;-55
2022/04/23 21:52:07;;;;;;;7.18;5.50;;;;;;;11.82;71.06;100278.69;10455981;28;20476;-55
2022/04/23 21:57:09;;;;;;;6.03;5.30;;;;;;;11.71;73.45;100278.59;10456772;28;20416;-54
2022/04/23 22:02:12;;;;;;;8.32;5.55;;;;;;;11.68;71.56;100273.56;10457421;28;20056;-54
2022/04/23 22:07:16;;;;;;;5.80;4.85;;;;;;;11.53;72.53;100276.31;10457348;28;20118;-55
2022/04/23 22:12:18;;;;;;;6.43;4.75;;;;;;;11.37;73.92;100280.13;10456619;28;20053;-55
2022/04/23 22:17:21;;;;;;;6.80;5.25;;;;;;;11.21;73.72;100281.13;10456975;28;20056;-54
2022/04/23 22:22:23;;;;;;;4.80;4.40;;;;;;;11.40;71.98;100288.59;10456441;28;20055;-54
2022/04/23 22:27:26;;;;;;;11.20;5.82;;;;;;;11.59;67.20;100289.94;10456959;28;20060;-51
2022/04/23 22:32:28;;;;;;;7.47;5.22;;;;;;;11.83;65.42;100284.75;10456126;28;20045;-53
2022/04/23 22:37:30;;;;;;;8.18;5.47;;;;;;;11.63;66.42;100289.63;10454635;28;20059;-50
2022/04/23 22:42:33;;;;;;;6.40;5.10;;;;;;;11.60;64.07;100284.59;10455792;28;20049;-54
2022/04/23 22:47:35;;;;;;;8.82;5.50;;;;;;;11.58;65.19;100289.09;10456393;28;20053;-52
2022/04/23 22:52:37;;;;;;;5.75;5.10;;;;;;;11.60;68.41;100288.97;10464191;28;20404;-52
2022/04/23 22:57:40;;;;;;;6.10;5.22;;;;;;;11.31;65.86;100289.22;10463548;28;20381;-51
2022/04/23 23:02:42;;;;;;;7.75;5.18;;;;;;;11.64;66.36;100279.97;10463916;28;20604;-54
2022/04/23 23:07:45;;;;;;;4.50;4.10;;;;;;;11.40;66.83;100285.13;10464333;28;20136;-51
2022/04/23 23:12:47;;;;;;;7.10;6.03;;;;;;;11.12;69.54;100273.91;10463353;28;20041;-49
2022/04/23 23:17:49;;;;;;;7.22;5.78;;;;;;;11.14;69.56;100272.84;10463455;28;20041;-49
2022/04/23 23:22:51;;;;;;;5.60;5.10;;;;;;;11.11;69.23;100269.59;10462612;28;20053;-51
2022/04/23 23:27:54;;;;;;;5.32;4.82;;;;;;;11.21;67.99;100275.06;10463292;28;20053;-54
2022/04/23 23:32:57;;;;;;;9.23;5.35;;;;;;;11.09;70.13;100268.88;10463261;28;20120;-52
2022/04/23 23:38:00;;;;;;;5.88;5.38;;;;;;;10.95;72.39;100267.19;10462659;28;20056;-53
2022/04/23 23:43:02;;;;;;;7.30;5.18;;;;;;;10.89;72.30;100267.59;10462924;28;20056;-51
2022/04/23 23:48:05;;;;;;;5.93;5.43;;;;;;;10.79;69.91;100272.63;10462719;28;20053;-52
2022/04/23 23:53:07;;;;;;;6.40;5.82;;;;;;;10.90;71.38;100270.13;10462351;28;20049;-50
2022/04/23 23:58:09;;;;;;;7.10;5.22;;;;;;;10.78;70.25;100268.34;10461508;28;20049;-53
